Time;durP1;ratioP1;P1;durP2;ratioP2;P2;SDS_P1;SDS_P2;PMS_P1;PMS_P2;Temp;Humidity;BMP_temperature;BMP_pressure;BME280_temperature;BME280_humidity;BME280_pressure;Samples;Min_cycle;Max_cycle;Signal;HPM_P1;HPM_P2
2022/03/17 00:02:03;;;;;;;26.47;17.00;;;6.80;99.90;;;;;;5033296;28;20182;-36
2022/03/17 00:04:30;;;;;;;23.13;16.27;;;6.70;99.90;;;;;;5032860;28;20191;-38
2022/03/17 00:06:56;;;;;;;22.33;16.70;;;6.50;99.90;;;;;;5015686;28;20190;-36
2022/03/17 00:09:22;;;;;;;22.50;17.53;;;6.40;99.90;;;;;;5033465;28;20226;-37
2022/03/17 00:11:48;;;;;;;24.80;17.17;;;6.40;99.90;;;;;;5050178;28;20175;-35
2022/03/17 00:14:14;;;;;;;25.37;18.17;;;6.40;99.90;;;;;;5033271;28;20181;-38
2022/03/17 00:16:40;;;;;;;25.53;17.43;;;6.50;99.90;;;;;;5033236;28;20181;-39
2022/03/17 00:19:08;;;;;;;26.80;18.20;;;6.50;99.90;;;;;;5032762;28;20225;-36
2022/03/17 00:21:36;;;;;;;26.13;19.00;;;6.60;99.90;;;;;;5033321;28;20309;-37
2022/03/17 00:24:03;;;;;;;26.23;18.90;;;6.60;99.90;;;;;;5049449;28;20582;-38
2022/03/17 00:26:30;;;;;;;25.00;18.63;;;6.60;99.90;;;;;;5033627;28;20183;-35
2022/03/17 00:28:55;;;;;;;24.23;18.63;;;6.70;99.90;;;;;;5029277;28;20272;-36
2022/03/17 00:31:21;;;;;;;27.30;19.93;;;6.60;99.90;;;;;;5032870;28;20181;-37
2022/03/17 00:33:47;;;;;;;28.70;19.33;;;6.50;99.90;;;;;;5032809;28;20263;-39
2022/03/17 00:36:13;;;;;;;23.97;17.77;;;6.30;99.90;;;;;;5032923;28;20180;-36
2022/03/17 00:38:39;;;;;;;27.17;18.63;;;6.20;99.90;;;;;;5032966;28;20664;-38
2022/03/17 00:41:04;;;;;;;30.00;19.80;;;6.20;99.90;;;;;;5016152;28;20213;-39
2022/03/17 00:43:30;;;;;;;31.20;20.60;;;6.10;99.90;;;;;;5031470;28;20281;-36
2022/03/17 00:45:56;;;;;;;30.40;19.33;;;6.10;99.90;;;;;;5032298;28;20177;-37
2022/03/17 00:48:22;;;;;;;27.70;19.43;;;6.20;99.90;;;;;;5032558;28;20209;-38
2022/03/17 00:50:48;;;;;;;30.13;19.87;;;6.20;99.90;;;;;;5032484;28;20217;-38
2022/03/17 00:53:14;;;;;;;28.90;19.57;;;6.10;99.90;;;;;;5048532;28;20187;-36
2022/03/17 00:55:40;;;;;;;29.87;19.57;;;6.20;99.90;;;;;;5032728;28;20266;-35
2022/03/17 00:58:06;;;;;;;31.17;19.70;;;6.20;99.90;;;;;;5032512;28;20185;-37
2022/03/17 01:00:32;;;;;;;30.00;20.47;;;6.20;99.90;;;;;;5032135;28;20230;-37
2022/03/17 01:02:58;;;;;;;27.23;20.13;;;6.30;99.90;;;;;;5022436;28;20211;-38
2022/03/17 01:05:25;;;;;;;26.60;18.93;;;6.30;99.90;;;;;;5032262;28;20193;-37
2022/03/17 01:07:53;;;;;;;26.63;18.77;;;6.30;99.90;;;;;;5030744;28;20194;-36
2022/03/17 01:10:19;;;;;;;23.97;17.80;;;6.30;99.90;;;;;;5031461;28;20208;-36
2022/03/17 01:12:47;;;;;;;26.77;18.83;;;6.40;99.90;;;;;;5032225;28;20175;-37
2022/03/17 01:15:15;;;;;;;24.47;17.83;;;6.40;99.90;;;;;;5032132;28;20279;-36
2022/03/17 01:17:40;;;;;;;27.33;19.10;;;6.40;99.90;;;;;;5031967;28;20227;-38
2022/03/17 01:20:08;;;;;;;26.97;18.77;;;6.30;99.90;;;;;;5031915;28;20209;-38
2022/03/17 01:22:34;;;;;;;27.63;19.43;;;6.30;99.90;;;;;;5032358;28;20197;-35
2022/03/17 01:25:01;;;;;;;27.00;18.73;;;6.30;99.90;;;;;;5048706;28;20196;-38
2022/03/17 01:27:27;;;;;;;27.30;18.73;;;6.30;99.90;;;;;;5032535;28;20188;-36
2022/03/17 01:29:53;;;;;;;26.60;18.70;;;6.20;99.90;;;;;;5016985;28;20215;-38
2022/03/17 01:32:21;;;;;;;27.67;19.13;;;6.30;99.90;;;;;;5012338;28;20181;-39
2022/03/17 01:34:47;;;;;;;29.53;20.43;;;6.30;99.90;;;;;;5011947;28;20190;-37
2022/03/17 01:37:14;;;;;;;30.90;19.70;;;6.20;99.90;;;;;;5011760;28;20601;-36
2022/03/17 01:39:40;;;;;;;27.90;20.00;;;6.20;99.90;;;;;;5011485;28;20205;-39
2022/03/17 01:42:08;;;;;;;27.87;19.57;;;6.20;99.90;;;;;;5012034;28;20263;-36
2022/03/17 01:44:35;;;;;;;27.63;19.90;;;6.10;99.90;;;;;;5011836;28;20584;-39
2022/03/17 01:49:46;;;;;;;26.70;18.73;;;6.10;99.90;;;;;;5027648;28;20229;-36
2022/03/17 01:52:12;;;;;;;26.93;19.53;;;6.20;99.90;;;;;;5011523;28;20205;-35
2022/03/17 01:54:41;;;;;;;30.23;19.77;;;6.20;99.90;;;;;;5012096;28;20200;-36
2022/03/17 01:57:08;;;;;;;24.63;19.00;;;6.20;99.90;;;;;;5011361;28;20280;-38
2022/03/17 01:59:35;;;;;;;26.93;20.07;;;6.30;99.90;;;;;;5023487;28;20285;-37
2022/03/17 02:02:04;;;;;;;24.43;18.43;;;6.30;99.90;;;;;;5031622;28;20184;-38
2022/03/17 02:04:30;;;;;;;27.90;20.40;;;6.40;99.90;;;;;;5031237;28;20180;-35
2022/03/17 02:06:56;;;;;;;30.37;19.80;;;6.30;99.90;;;;;;5032395;28;20185;-38
2022/03/17 02:09:26;;;;;;;26.57;19.23;;;6.30;99.90;;;;;;5031008;28;20215;-36
2022/03/17 02:14:55;;;;;;;25.17;18.57;;;6.30;99.90;;;;;;5032372;28;20195;-38
2022/03/17 02:17:22;;;;;;;28.83;19.60;;;6.40;99.90;;;;;;5031127;28;20235;-38
2022/03/17 02:19:49;;;;;;;25.33;19.00;;;6.40;99.90;;;;;;5029786;28;20247;-37
2022/03/17 02:22:17;;;;;;;25.47;18.97;;;6.40;99.90;;;;;;5030638;28;20283;-36
2022/03/17 02:27:33;;;;;;;25.60;18.47;;;6.40;99.90;;;;;;5030540;28;20182;-35
2022/03/17 02:29:59;;;;;;;23.50;17.63;;;6.30;99.90;;;;;;5029881;28;20239;-36
2022/03/17 02:32:26;;;;;;;28.40;19.40;;;6.30;99.90;;;;;;5030595;28;20192;-35
2022/03/17 02:34:54;;;;;;;24.07;18.00;;;6.30;99.90;;;;;;5047051;28;20199;-36
2022/03/17 02:37:21;;;;;;;26.57;18.90;;;6.30;99.90;;;;;;5030950;28;20267;-38
2022/03/17 02:39:47;;;;;;;26.33;18.57;;;6.20;99.90;;;;;;5031657;28;20201;-35
2022/03/17 02:42:13;;;;;;;24.80;17.90;;;6.20;99.90;;;;;;5030056;28;20186;-36
2022/03/17 02:44:39;;;;;;;25.93;19.57;;;6.30;99.90;;;;;;5030463;28;20184;-36
2022/03/17 02:47:06;;;;;;;25.97;18.77;;;6.10;99.90;;;;;;5030298;28;20197;-36
2022/03/17 02:49:33;;;;;;;26.37;18.70;;;6.10;99.90;;;;;;5047111;28;20217;-36
2022/03/17 02:52:01;;;;;;;29.30;19.53;;;5.90;99.90;;;;;;5046594;28;20269;-36
2022/03/17 02:54:27;;;;;;;28.00;19.83;;;5.70;99.90;;;;;;5046512;28;20263;-37
2022/03/17 02:56:53;;;;;;;27.57;19.77;;;5.70;99.90;;;;;;5046573;28;20179;-38
2022/03/17 02:59:18;;;;;;;29.07;19.47;;;5.80;99.90;;;;;;5029910;28;20310;-37
2022/03/17 03:01:44;;;;;;;29.87;19.97;;;5.80;99.90;;;;;;5030030;28;20188;-37
2022/03/17 03:04:13;;;;;;;29.17;20.13;;;5.80;99.90;;;;;;5046809;28;20187;-35
2022/03/17 03:06:39;;;;;;;31.27;19.47;;;5.80;99.90;;;;;;5046963;28;20180;-35
2022/03/17 03:09:05;;;;;;;27.47;19.87;;;5.70;99.90;;;;;;5046259;28;20296;-35
2022/03/17 03:11:31;;;;;;;27.27;19.23;;;5.80;99.90;;;;;;5031491;28;20181;-40
2022/03/17 03:13:57;;;;;;;25.73;19.20;;;5.80;99.90;;;;;;5030061;28;20266;-38
2022/03/17 03:16:23;;;;;;;29.40;20.87;;;5.80;99.90;;;;;;5030287;28;20271;-37
2022/03/17 03:18:49;;;;;;;30.53;20.53;;;5.80;99.90;;;;;;5046370;28;20213;-38
2022/03/17 03:21:16;;;;;;;27.53;20.03;;;5.80;99.90;;;;;;5029938;28;20182;-38
2022/03/17 03:23:41;;;;;;;29.50;20.00;;;5.80;99.90;;;;;;5046111;28;20184;-37
2022/03/17 03:26:07;;;;;;;28.67;21.00;;;5.80;99.90;;;;;;5029932;28;20533;-38
2022/03/17 03:28:33;;;;;;;28.03;18.80;;;5.90;99.90;;;;;;5046012;28;20299;-36
2022/03/17 03:30:59;;;;;;;29.93;20.63;;;5.90;99.90;;;;;;5033251;28;20200;-37
2022/03/17 03:33:26;;;;;;;26.27;19.07;;;5.90;99.90;;;;;;5036283;28;20206;-36
2022/03/17 03:38:36;;;;;;;28.13;19.37;;;5.90;99.90;;;;;;5036038;28;20268;-36
2022/03/17 03:41:02;;;;;;;28.37;19.97;;;6.00;99.90;;;;;;5035765;28;20300;-36
2022/03/17 03:43:28;;;;;;;27.90;19.97;;;6.00;99.90;;;;;;5036232;28;20239;-36
2022/03/17 03:45:54;;;;;;;27.03;20.17;;;6.00;99.90;;;;;;5036230;28;20185;-36
2022/03/17 03:48:20;;;;;;;30.60;19.33;;;6.10;99.90;;;;;;5037431;28;20266;-35
2022/03/17 03:50:46;;;;;;;26.83;19.17;;;6.10;99.90;;;;;;5035740;28;20238;-36
2022/03/17 03:53:13;;;;;;;27.00;19.23;;;6.10;99.90;;;;;;5019444;28;20187;-36
2022/03/17 03:55:38;;;;;;;23.53;17.73;;;6.10;99.90;;;;;;5020139;28;20184;-38
2022/03/17 03:58:04;;;;;;;27.83;18.43;;;6.10;99.90;;;;;;5036128;28;20276;-39
2022/03/17 04:00:36;;;;;;;24.13;17.93;;;6.10;99.90;;;;;;5035689;28;20220;-38
2022/03/17 04:03:05;;;;;;;27.07;18.83;;;6.20;99.90;;;;;;5035928;28;20179;-38
2022/03/17 04:05:34;;;;;;;24.07;18.20;;;6.20;99.90;;;;;;5037110;28;20174;-38
2022/03/17 04:08:01;;;;;;;26.30;19.03;;;6.20;99.90;;;;;;5035791;28;20181;-38
2022/03/17 04:10:27;;;;;;;28.23;19.57;;;6.20;99.90;;;;;;5019163;28;20202;-38
2022/03/17 04:12:54;;;;;;;25.90;18.23;;;6.20;99.90;;;;;;5019455;28;20191;-38
2022/03/17 04:15:20;;;;;;;26.17;18.63;;;6.20;99.90;;;;;;5019412;28;20259;-38
2022/03/17 04:17:46;;;;;;;27.60;18.97;;;6.10;99.90;;;;;;5035745;28;20182;-38
2022/03/17 04:20:12;;;;;;;25.80;18.10;;;6.20;99.90;;;;;;5035567;28;20215;-38
2022/03/17 04:22:38;;;;;;;26.87;19.03;;;6.10;99.90;;;;;;5037266;28;20176;-38
2022/03/17 04:25:05;;;;;;;25.53;19.00;;;6.10;99.90;;;;;;5035662;28;20272;-38
2022/03/17 04:27:31;;;;;;;28.37;19.77;;;6.10;99.90;;;;;;5052578;28;20191;-38
2022/03/17 04:29:56;;;;;;;34.47;23.23;;;6.10;99.90;;;;;;5018772;28;20225;-36
2022/03/17 04:32:22;;;;;;;36.67;24.80;;;6.10;99.90;;;;;;5035604;28;20207;-37
2022/03/17 04:34:49;;;;;;;25.50;19.43;;;6.10;99.90;;;;;;5035597;28;20187;-36
2022/03/17 04:37:15;;;;;;;27.00;19.23;;;6.00;99.90;;;;;;5035865;28;20202;-38
2022/03/17 04:39:41;;;;;;;30.13;20.23;;;5.90;99.90;;;;;;5037006;28;20228;-38
2022/03/17 04:42:08;;;;;;;29.13;19.53;;;5.90;99.90;;;;;;5033729;28;20575;-38
2022/03/17 04:44:35;;;;;;;28.90;20.60;;;6.00;99.90;;;;;;5034042;28;20184;-38
2022/03/17 04:47:01;;;;;;;27.20;20.00;;;6.10;99.90;;;;;;5015841;28;20217;-36
2022/03/17 04:49:27;;;;;;;29.07;20.70;;;6.00;99.90;;;;;;5032246;28;20211;-35
2022/03/17 04:51:53;;;;;;;30.70;21.60;;;6.00;99.90;;;;;;5032318;28;20183;-36
2022/03/17 04:54:19;;;;;;;28.80;20.10;;;6.00;99.90;;;;;;5032949;28;20183;-38
2022/03/17 04:56:44;;;;;;;28.10;19.37;;;6.00;99.90;;;;;;5016313;28;20219;-39
2022/03/17 04:59:10;;;;;;;28.67;20.53;;;6.00;99.90;;;;;;5032244;28;20239;-39
2022/03/17 05:01:36;;;;;;;28.90;20.63;;;6.00;99.90;;;;;;5030327;28;20187;-36
2022/03/17 05:04:03;;;;;;;27.33;19.53;;;5.90;99.90;;;;;;5022309;28;20190;-36
2022/03/17 05:06:29;;;;;;;28.73;20.70;;;5.90;99.90;;;;;;5026147;28;20233;-37
2022/03/17 05:08:55;;;;;;;28.33;20.10;;;5.90;99.90;;;;;;5020499;28;20199;-38
2022/03/17 05:11:21;;;;;;;29.33;20.60;;;5.90;99.90;;;;;;5022016;28;20175;-36
2022/03/17 05:13:48;;;;;;;29.23;20.33;;;5.90;99.90;;;;;;5027967;28;20179;-40
2022/03/17 05:16:14;;;;;;;30.10;20.90;;;5.90;99.90;;;;;;5012048;28;20208;-35
2022/03/17 05:18:40;;;;;;;29.60;21.30;;;5.90;99.90;;;;;;5020860;28;20303;-37
2022/03/17 05:21:06;;;;;;;29.23;20.60;;;5.90;99.90;;;;;;5004695;28;20232;-36
2022/03/17 05:23:33;;;;;;;26.03;18.90;;;5.90;99.90;;;;;;5022555;28;20216;-35
2022/03/17 05:26:00;;;;;;;27.70;19.67;;;5.90;99.90;;;;;;5023971;28;20269;-38
2022/03/17 05:28:26;;;;;;;26.37;18.70;;;5.90;99.90;;;;;;5033075;28;20236;-35
2022/03/17 05:30:53;;;;;;;30.27;20.50;;;6.00;99.90;;;;;;5047742;28;20209;-38
2022/03/17 05:33:18;;;;;;;30.40;21.03;;;6.00;99.90;;;;;;5031089;28;20207;-38
2022/03/17 05:35:45;;;;;;;26.87;19.80;;;5.90;99.90;;;;;;5031516;28;20214;-36
2022/03/17 05:38:12;;;;;;;28.07;19.77;;;5.90;99.90;;;;;;5032945;28;20168;-36
2022/03/17 05:40:38;;;;;;;29.40;20.67;;;5.90;99.90;;;;;;5033762;28;20258;-35
2022/03/17 05:43:07;;;;;;;31.67;20.63;;;5.90;99.90;;;;;;5032051;28;20248;-36
2022/03/17 05:45:34;;;;;;;33.33;22.17;;;5.90;99.90;;;;;;5015017;28;20180;-36
2022/03/17 05:48:02;;;;;;;30.57;21.33;;;6.00;99.90;;;;;;5031308;28;20633;-38
2022/03/17 05:50:32;;;;;;;30.17;20.67;;;6.10;99.90;;;;;;5031120;28;20193;-38
2022/03/17 05:52:58;;;;;;;29.07;21.77;;;6.10;99.90;;;;;;5030933;28;20283;-35
2022/03/17 05:55:25;;;;;;;31.03;22.10;;;6.10;99.90;;;;;;5031042;28;20168;-38
2022/03/17 05:57:54;;;;;;;29.17;21.83;;;6.20;99.90;;;;;;5031228;28;20189;-39
2022/03/17 06:00:24;;;;;;;29.90;21.13;;;6.20;99.90;;;;;;5031147;28;20227;-36
2022/03/17 06:02:52;;;;;;;29.23;20.17;;;6.20;99.90;;;;;;5032538;28;20243;-36
2022/03/17 06:05:18;;;;;;;26.63;19.50;;;6.30;99.90;;;;;;5048515;28;20239;-35
2022/03/17 06:07:49;;;;;;;28.23;20.77;;;6.30;99.90;;;;;;5047888;28;20310;-36
2022/03/17 06:10:17;;;;;;;28.67;19.90;;;6.30;99.90;;;;;;5048934;28;20213;-36
2022/03/17 06:12:44;;;;;;;27.87;20.33;;;6.30;99.90;;;;;;5032868;28;20215;-37
2022/03/17 06:15:11;;;;;;;30.10;20.57;;;6.30;99.90;;;;;;5032929;28;20210;-36
2022/03/17 06:17:41;;;;;;;27.33;19.67;;;6.30;99.90;;;;;;5031956;28;20259;-36
2022/03/17 06:20:10;;;;;;;25.90;18.57;;;6.30;99.90;;;;;;5030327;28;20290;-36
2022/03/17 06:22:40;;;;;;;27.93;19.33;;;6.40;99.90;;;;;;5031280;28;20186;-38
2022/03/17 06:25:08;;;;;;;30.67;19.37;;;6.40;99.90;;;;;;5030550;28;20202;-39
2022/03/17 06:27:36;;;;;;;32.83;19.10;;;6.40;99.90;;;;;;5030394;28;20184;-38
2022/03/17 06:30:04;;;;;;;27.57;19.00;;;6.40;99.90;;;;;;5046711;28;20225;-38
2022/03/17 06:32:30;;;;;;;26.83;18.73;;;6.40;99.90;;;;;;5030388;28;20182;-38
2022/03/17 06:34:56;;;;;;;28.03;18.60;;;6.40;99.90;;;;;;5030593;28;20189;-38
2022/03/17 06:37:22;;;;;;;33.77;19.83;;;6.40;99.90;;;;;;5030332;28;20181;-38
2022/03/17 06:39:48;;;;;;;26.87;19.17;;;6.40;99.90;;;;;;5031223;28;20193;-38
2022/03/17 06:42:13;;;;;;;30.13;19.93;;;6.40;99.90;;;;;;5030378;28;20685;-40
2022/03/17 06:44:39;;;;;;;30.37;19.93;;;6.40;99.90;;;;;;5029518;28;20200;-38
2022/03/17 06:47:05;;;;;;;29.47;19.33;;;6.40;99.90;;;;;;5030707;28;20194;-38
2022/03/17 06:49:31;;;;;;;33.23;20.27;;;6.30;99.90;;;;;;5048520;28;20203;-38
2022/03/17 06:51:58;;;;;;;29.87;19.90;;;6.20;99.90;;;;;;5032312;28;20653;-38
2022/03/17 06:54:25;;;;;;;29.27;20.77;;;6.10;99.90;;;;;;5032266;28;20179;-38
2022/03/17 06:56:51;;;;;;;29.37;21.27;;;6.10;99.90;;;;;;5031987;28;20205;-38
2022/03/17 06:59:16;;;;;;;31.87;20.73;;;6.10;99.90;;;;;;5168566;23;20185;-40
2022/03/17 07:01:42;;;;;;;31.47;21.33;;;6.10;99.90;;;;;;5013009;28;20179;-40
2022/03/17 07:04:08;;;;;;;31.07;21.10;;;6.10;99.90;;;;;;5013191;28;20264;-40
2022/03/17 07:06:34;;;;;;;27.07;19.40;;;6.20;99.90;;;;;;4996088;28;20178;-40
2022/03/17 07:09:00;;;;;;;30.43;22.20;;;6.20;99.90;;;;;;5030058;28;20754;-42
2022/03/17 07:11:25;;;;;;;28.97;21.00;;;6.30;99.90;;;;;;5029559;28;20196;-42
2022/03/17 07:13:51;;;;;;;30.90;20.83;;;6.30;99.90;;;;;;5013130;28;20648;-38
2022/03/17 07:16:18;;;;;;;30.23;22.17;;;6.40;99.90;;;;;;5013160;28;20219;-40
2022/03/17 07:18:44;;;;;;;30.60;22.50;;;6.50;99.90;;;;;;5013216;28;20192;-40
2022/03/17 07:21:10;;;;;;;30.67;21.30;;;6.50;99.90;;;;;;5030616;28;20214;-41
2022/03/17 07:23:36;;;;;;;31.10;21.83;;;6.60;99.90;;;;;;4996597;28;20184;-42
2022/03/17 07:26:03;;;;;;;28.83;20.73;;;6.70;99.90;;;;;;5013151;28;20184;-40
2022/03/17 07:28:29;;;;;;;34.03;21.93;;;6.70;99.90;;;;;;5013181;28;20209;-40
2022/03/17 07:30:54;;;;;;;31.97;22.43;;;6.70;99.90;;;;;;5013089;28;20203;-40
2022/03/17 07:33:20;;;;;;;31.03;21.97;;;6.80;99.90;;;;;;5013202;28;20248;-38
2022/03/17 07:35:46;;;;;;;26.47;20.43;;;6.80;99.90;;;;;;5012831;28;20191;-39
2022/03/17 07:38:12;;;;;;;29.80;20.37;;;6.90;99.90;;;;;;5030633;28;20182;-40
2022/03/17 07:40:39;;;;;;;29.23;19.47;;;6.90;99.90;;;;;;5012647;28;20287;-41
2022/03/17 07:43:04;;;;;;;26.67;19.40;;;7.00;99.90;;;;;;4996756;28;20323;-42
2022/03/17 07:45:30;;;;;;;28.03;19.33;;;7.00;99.90;;;;;;5030829;28;20276;-39
2022/03/17 07:48:15;;;;;;;31.07;19.87;;;7.00;99.90;;;;;;5030950;28;20321;-39
2022/03/17 07:50:50;;;;;;;27.63;20.20;;;7.10;99.90;;;;;;5012916;28;20227;-40
2022/03/17 07:53:17;;;;;;;28.10;18.57;;;7.10;99.90;;;;;;5012695;28;20199;-40
2022/03/17 07:55:43;;;;;;;29.97;21.50;;;7.10;99.90;;;;;;4996739;28;20199;-38
2022/03/17 07:58:10;;;;;;;30.13;19.97;;;7.10;99.90;;;;;;5013122;28;20185;-40
2022/03/17 08:00:37;;;;;;;25.17;18.73;;;7.10;99.90;;;;;;5030089;28;20211;-39
2022/03/17 08:03:07;;;;;;;30.80;19.57;;;7.10;99.90;;;;;;5012735;28;20186;-42
2022/03/17 08:05:33;;;;;;;28.27;20.60;;;7.10;99.90;;;;;;5012752;28;20266;-40
2022/03/17 08:08:00;;;;;;;27.60;20.20;;;7.10;99.90;;;;;;5012645;28;20291;-40
2022/03/17 08:10:28;;;;;;;28.57;19.80;;;7.10;99.90;;;;;;5012482;28;20291;-39
2022/03/17 08:12:54;;;;;;;28.40;19.90;;;7.10;99.90;;;;;;5012703;28;20185;-41
2022/03/17 08:15:21;;;;;;;30.73;21.00;;;7.10;99.90;;;;;;5012494;28;20242;-41
2022/03/17 08:17:47;;;;;;;31.77;21.40;;;7.10;99.90;;;;;;5014313;28;20231;-41
2022/03/17 08:20:14;;;;;;;31.33;20.97;;;7.20;99.90;;;;;;4999807;28;20225;-42
2022/03/17 08:22:42;;;;;;;30.33;20.60;;;7.20;99.90;;;;;;5016414;28;20189;-41
2022/03/17 08:25:09;;;;;;;27.57;19.50;;;7.30;99.90;;;;;;5016322;28;20179;-40
2022/03/17 08:27:38;;;;;;;28.40;20.70;;;7.30;99.90;;;;;;5016321;28;20214;-41
2022/03/17 08:30:05;;;;;;;32.53;21.80;;;7.40;99.90;;;;;;5015887;28;20227;-41
2022/03/17 08:32:31;;;;;;;29.27;19.80;;;7.40;99.90;;;;;;5015881;28;20180;-42
2022/03/17 08:34:56;;;;;;;31.00;21.93;;;7.50;99.90;;;;;;4999649;28;20186;-41
2022/03/17 08:37:22;;;;;;;30.73;21.33;;;7.60;99.90;;;;;;5016159;28;20179;-40
2022/03/17 08:39:48;;;;;;;27.77;19.80;;;7.60;99.90;;;;;;4999547;28;20301;-40
2022/03/17 08:42:14;;;;;;;29.67;20.80;;;7.60;99.90;;;;;;5016139;28;20178;-41
2022/03/17 08:44:41;;;;;;;26.93;20.10;;;7.60;99.90;;;;;;5015995;28;20185;-40
2022/03/17 08:49:51;;;;;;;29.70;19.93;;;7.50;99.90;;;;;;5015403;28;20218;-41
2022/03/17 08:52:19;;;;;;;28.47;21.00;;;7.50;99.90;;;;;;5015894;28;20182;-40
2022/03/17 08:54:45;;;;;;;30.23;20.13;;;7.60;99.90;;;;;;5016008;28;20186;-42
2022/03/17 08:57:12;;;;;;;27.03;19.80;;;7.60;99.90;;;;;;5015811;28;20224;-40
2022/03/17 08:59:38;;;;;;;25.87;20.13;;;7.70;99.90;;;;;;5015436;28;20209;-40
2022/03/17 09:02:06;;;;;;;32.30;22.47;;;7.70;99.90;;;;;;5033509;28;20186;-37
2022/03/17 09:04:33;;;;;;;30.03;22.33;;;7.70;99.90;;;;;;5015709;28;20190;-40
2022/03/17 09:07:00;;;;;;;30.33;20.80;;;7.70;99.90;;;;;;4999275;28;20189;-41
2022/03/17 09:09:34;;;;;;;29.97;21.80;;;7.80;99.90;;;;;;5015132;28;20218;-41
2022/03/17 09:12:05;;;;;;;30.80;23.07;;;7.80;99.90;;;;;;5015568;28;20171;-42
2022/03/17 09:14:36;;;;;;;28.87;21.33;;;7.90;99.90;;;;;;5015332;28;20190;-41
2022/03/17 09:17:03;;;;;;;30.77;21.37;;;7.90;99.90;;;;;;5015543;28;20196;-41
2022/03/17 09:19:28;;;;;;;30.87;21.33;;;8.00;99.90;;;;;;5014876;28;20217;-41
2022/03/17 09:21:54;;;;;;;29.47;21.77;;;8.00;99.90;;;;;;5014978;28;20198;-41
2022/03/17 09:24:20;;;;;;;29.60;20.83;;;8.10;99.90;;;;;;4999223;28;20196;-41
2022/03/17 09:26:46;;;;;;;28.33;21.87;;;8.10;99.90;;;;;;5032953;28;20186;-41
2022/03/17 09:29:12;;;;;;;31.67;24.10;;;8.20;99.90;;;;;;5014668;28;20225;-41
2022/03/17 09:31:38;;;;;;;29.73;22.20;;;8.20;99.90;;;;;;5015306;28;20180;-41
2022/03/17 09:34:04;;;;;;;30.63;23.53;;;8.20;99.90;;;;;;5015205;28;20178;-40
2022/03/17 09:36:29;;;;;;;30.43;24.30;;;8.30;99.90;;;;;;4998484;28;20178;-39
2022/03/17 09:41:42;;;;;;;28.47;21.63;;;8.40;99.90;;;;;;5015082;28;20214;-40
2022/03/17 09:44:08;;;;;;;35.17;24.93;;;8.50;99.90;;;;;;5014927;28;20253;-41
2022/03/17 09:46:35;;;;;;;33.93;23.50;;;8.50;99.90;;;;;;5014935;28;20257;-40
2022/03/17 09:49:04;;;;;;;31.23;22.43;;;8.60;99.90;;;;;;5031555;28;20214;-40
2022/03/17 09:51:31;;;;;;;31.57;22.43;;;8.60;99.90;;;;;;5021925;28;20183;-40
2022/03/17 09:54:00;;;;;;;30.73;22.70;;;8.70;99.90;;;;;;5005208;28;20258;-41
2022/03/17 09:56:27;;;;;;;26.13;20.40;;;8.70;99.90;;;;;;5025337;28;20179;-40
2022/03/17 09:58:55;;;;;;;30.83;22.03;;;8.80;99.90;;;;;;5005335;28;20183;-40
2022/03/17 10:01:25;;;;;;;32.00;21.97;;;8.90;99.90;;;;;;4987949;28;20199;-42
2022/03/17 10:04:01;;;;;;;32.37;23.03;;;8.80;99.90;;;;;;5004425;28;20225;-42
2022/03/17 10:06:28;;;;;;;27.63;22.13;;;8.90;99.90;;;;;;4993737;28;20225;-40
2022/03/17 10:08:58;;;;;;;35.17;23.23;;;8.90;99.90;;;;;;4999398;28;20222;-42
2022/03/17 10:11:32;;;;;;;31.40;23.53;;;9.00;99.90;;;;;;4988498;28;20218;-41
2022/03/17 10:14:05;;;;;;;33.60;25.17;;;9.00;99.90;;;;;;5010758;28;20198;-41
2022/03/17 10:16:33;;;;;;;31.60;23.30;;;9.10;99.90;;;;;;4999645;28;20709;-41
2022/03/17 10:19:08;;;;;;;30.30;22.47;;;9.10;99.90;;;;;;4987470;28;20172;-41
2022/03/17 10:21:35;;;;;;;29.80;23.17;;;9.10;99.90;;;;;;4986157;28;20257;-42
2022/03/17 10:24:08;;;;;;;33.40;23.97;;;9.20;99.90;;;;;;5004796;28;20270;-40
2022/03/17 10:26:36;;;;;;;33.03;24.37;;;9.20;99.90;;;;;;5011791;28;20220;-40
2022/03/17 10:29:10;;;;;;;29.73;23.47;;;9.20;99.90;;;;;;5007140;28;20222;-41
2022/03/17 10:32:05;;;;;;;32.30;23.07;;;9.20;99.90;;;;;;5021552;28;20175;-41
2022/03/17 10:34:56;;;;;;;31.07;24.13;;;9.30;99.90;;;;;;5009048;28;20183;-42
2022/03/17 10:37:24;;;;;;;29.60;22.70;;;9.40;99.90;;;;;;5001950;28;20186;-41
2022/03/17 10:39:58;;;;;;;29.73;23.30;;;9.40;99.90;;;;;;4993040;28;20211;-42
2022/03/17 10:42:26;;;;;;;31.70;24.23;;;9.50;99.90;;;;;;4992432;28;20250;-40
2022/03/17 10:44:58;;;;;;;31.67;24.67;;;9.60;99.90;;;;;;4976656;28;20180;-41
2022/03/17 10:47:28;;;;;;;31.03;24.00;;;9.60;99.90;;;;;;5009724;28;20194;-41
2022/03/17 10:50:00;;;;;;;31.43;23.47;;;9.70;99.90;;;;;;4976896;28;20242;-42
2022/03/17 10:52:42;;;;;;;29.00;23.30;;;9.80;99.90;;;;;;4993628;28;20179;-42
2022/03/17 10:55:09;;;;;;;32.33;24.13;;;9.80;99.90;;;;;;5011284;28;20199;-41
2022/03/17 10:57:35;;;;;;;32.03;23.40;;;9.70;99.90;;;;;;4993938;28;20193;-41
2022/03/17 11:00:02;;;;;;;30.40;23.80;;;9.80;99.90;;;;;;4992109;28;20214;-40
2022/03/17 11:02:32;;;;;;;30.70;22.87;;;9.80;99.90;;;;;;5022969;28;20175;-40
2022/03/17 11:05:00;;;;;;;29.27;23.33;;;9.90;99.90;;;;;;5003437;28;20688;-40
2022/03/17 11:07:27;;;;;;;32.93;24.40;;;9.90;99.90;;;;;;5012119;28;20266;-41
2022/03/17 11:09:53;;;;;;;28.63;23.30;;;9.90;99.90;;;;;;4985737;28;20282;-41
2022/03/17 11:12:20;;;;;;;30.73;24.00;;;9.90;99.90;;;;;;5010578;28;20272;-41
2022/03/17 11:14:51;;;;;;;33.03;24.97;;;9.90;99.90;;;;;;5008239;28;20228;-42
2022/03/17 11:17:26;;;;;;;29.70;23.53;;;9.90;99.90;;;;;;4994671;28;20234;-42
2022/03/17 11:19:54;;;;;;;32.80;24.33;;;9.90;99.90;;;;;;5002229;28;20729;-41
2022/03/17 11:22:28;;;;;;;30.33;23.37;;;10.00;99.90;;;;;;4990776;28;20237;-40
2022/03/17 11:25:17;;;;;;;26.27;21.83;;;10.00;99.90;;;;;;4992380;28;20195;-41
2022/03/17 11:27:46;;;;;;;30.77;24.00;;;10.00;99.90;;;;;;4976270;28;20198;-42
2022/03/17 11:30:16;;;;;;;30.33;23.17;;;10.00;99.90;;;;;;4990678;28;20238;-41
2022/03/17 11:32:50;;;;;;;33.30;23.67;;;10.00;99.90;;;;;;5002054;28;20301;-42
2022/03/17 11:35:19;;;;;;;31.57;22.87;;;10.10;99.90;;;;;;4988291;28;20194;-41
2022/03/17 11:37:45;;;;;;;29.13;23.23;;;10.00;99.90;;;;;;4999509;28;20175;-42
2022/03/17 11:40:16;;;;;;;29.47;22.83;;;10.10;99.90;;;;;;4993073;28;20203;-42
2022/03/17 11:42:44;;;;;;;28.47;23.07;;;10.20;99.90;;;;;;5010988;28;20585;-41
2022/03/17 11:45:16;;;;;;;29.67;23.37;;;10.10;99.90;;;;;;4977250;28;20191;-41
2022/03/17 11:47:50;;;;;;;29.90;23.53;;;10.10;99.90;;;;;;4977306;28;20183;-41
2022/03/17 11:50:25;;;;;;;27.07;21.43;;;10.20;99.90;;;;;;4976822;28;20211;-42
2022/03/17 11:52:59;;;;;;;28.27;22.10;;;10.20;99.90;;;;;;5014438;28;20193;-41
2022/03/17 11:55:47;;;;;;;31.67;22.50;;;10.30;99.90;;;;;;4997499;28;20188;-42
2022/03/17 11:58:30;;;;;;;27.47;21.87;;;10.40;99.90;;;;;;4997801;28;20182;-42
2022/03/17 12:01:05;;;;;;;31.93;23.37;;;10.50;99.90;;;;;;5016233;28;20224;-42
2022/03/17 12:03:37;;;;;;;30.53;22.90;;;10.40;99.90;;;;;;5033354;28;20244;-42
2022/03/17 12:06:24;;;;;;;26.73;21.00;;;10.40;99.90;;;;;;4990922;28;20193;-41
2022/03/17 12:08:55;;;;;;;30.93;22.10;;;10.50;99.90;;;;;;5009522;28;20319;-42
2022/03/17 12:11:24;;;;;;;29.13;21.77;;;10.50;99.90;;;;;;4997648;28;20175;-41
2022/03/17 12:14:16;;;;;;;28.00;22.13;;;10.60;99.90;;;;;;4995058;28;20183;-40
2022/03/17 12:17:06;;;;;;;27.23;21.03;;;10.70;99.90;;;;;;4997753;28;20199;-42
2022/03/17 12:19:37;;;;;;;27.87;20.83;;;10.80;99.90;;;;;;5021653;28;20206;-41
2022/03/17 12:22:07;;;;;;;26.67;21.70;;;10.80;99.90;;;;;;4997590;28;20185;-42
2022/03/17 12:24:40;;;;;;;25.60;20.60;;;10.90;99.90;;;;;;4996123;28;20186;-41
2022/03/17 12:27:09;;;;;;;29.30;22.07;;;11.00;99.90;;;;;;5022712;28;20179;-40
2022/03/17 12:29:34;;;;;;;30.20;22.43;;;11.00;99.90;;;;;;4993233;28;20296;-42
2022/03/17 12:32:09;;;;;;;27.77;22.07;;;11.00;99.90;;;;;;5005405;28;20273;-42
2022/03/17 12:34:36;;;;;;;27.40;21.23;;;11.00;99.90;;;;;;5029023;28;20171;-42
2022/03/17 12:37:03;;;;;;;28.03;21.77;;;11.10;99.90;;;;;;5015926;28;20180;-41
2022/03/17 12:39:30;;;;;;;28.20;20.80;;;11.10;99.90;;;;;;5024445;28;20201;-41
2022/03/17 12:41:57;;;;;;;26.63;21.37;;;11.20;99.90;;;;;;5004687;28;20241;-42
2022/03/17 12:44:24;;;;;;;34.50;24.63;;;11.30;99.90;;;;;;4987672;28;20303;-42
2022/03/17 12:46:52;;;;;;;32.37;24.87;;;11.40;99.90;;;;;;5006821;28;20185;-42
2022/03/17 12:49:19;;;;;;;33.17;24.43;;;11.40;99.90;;;;;;5005534;28;20254;-42
2022/03/17 12:51:46;;;;;;;33.67;24.00;;;11.50;99.90;;;;;;4988573;28;20417;-42
2022/03/17 12:54:13;;;;;;;30.10;23.27;;;11.60;99.90;;;;;;5012917;28;20173;-42
2022/03/17 12:56:52;;;;;;;27.10;22.53;;;11.70;99.90;;;;;;5022584;28;20177;-42